Impacts TAF Board
For situational awareness. Not to be used for flight planning purposes.
IDs:

KLAX - Los Angeles Intl, CA, US

Issued at 2054 UTC 21 Sep 2021
Updated at 2314 UTC 21 Sep 2021
Potential Impact None Slight Moderate High
Time2253Z 22/00Z 22/01Z 22/02Z 22/03Z 22/04Z 22/05Z 22/06Z 22/07Z 22/08Z 22/09Z 22/10Z 22/11Z 22/12Z>>
Type OBS PRVL PRVL PRVL PRVL PRVL PRVL PRVL PRVL PRVL PRVL PRVL PRVL PRVL
VIS 10 >6 >6 >6 >6 >6 >6 >6 >6 >6 1 1 1 1
CIG -- -- -- -- -- -- -- -- -- -- 5 5 5 5
Cover CLR SKC SKC SKC SKC SKC SKC SKC SKC SKC OVC OVC OVC OVC
FltCat VFR VFR VFR VFR VFR VFR VFR VFR VFR VFR IFR IFR IFR IFR
WX -- -- -- -- -- -- -- -- -- -- BR BR BR BR
WDir 270 270 270 270 270 260 260 260 260 260 VRB VRB VRB VRB
WSpd 11 12 12 12 12 6 6 6 6 6 3 3 3 3
WGst -- -- -- -- -- -- -- -- -- -- -- -- -- --
Raw TAF
KLAX 212054Z 2121/2224 27012KT P6SM SKC
  FM220400 26006KT P6SM SKC
  FM220900 VRB03KT 1SM BR OVC005
  FM221600 26006KT 6SM BR BKN007
  FM221800 26010KT P6SM SCT008


Raw METAR
KLAX 212253Z 27011KT 10SM CLR 26/16 A3002 RMK AO2 SLP164 T02560156
KLAX 212153Z 27012KT 10SM CLR 24/18 A3003 RMK AO2 SLP169 T02440178
KLAX 212053Z 27012KT 10SM CLR 24/17 A3005 RMK AO2 SLP174 T02440172 56008

METAR Board
Radar Display
Forecast Discussion
For situational awareness. Not to be used for flight planning purposes.